Time;durP1;ratioP1;P1;durP2;ratioP2;P2;SDS_P1;SDS_P2;PMS_P1;PMS_P2;Temp;Humidity;BMP_temperature;BMP_pressure;BME280_temperature;BME280_humidity;BME280_pressure;Samples;Min_cycle;Max_cycle;Signal;HPM_P1;HPM_P2
2021/10/30 00:00:54;;;;;;;67.00;37.10;;;;;;;;;;2090556;28;20132;-46
2021/10/30 00:01:57;;;;;;;57.83;33.65;;;;;;;;;;2088357;28;20579;-44
2021/10/30 00:02:58;;;;;;;62.83;34.40;;;;;;;;;;2088953;28;20037;-44
2021/10/30 00:03:59;;;;;;;57.10;33.67;;;;;;;;;;2090137;28;20122;-44
2021/10/30 00:05:00;;;;;;;59.20;33.83;;;;;;;;;;2088479;28;20357;-44
2021/10/30 00:06:01;;;;;;;52.22;31.88;;;;;;;;;;2090423;28;20485;-44
2021/10/30 00:07:03;;;;;;;55.15;30.58;;;;;;;;;;2089655;28;20073;-44
2021/10/30 00:08:04;;;;;;;53.83;31.40;;;;;;;;;;2088571;28;20167;-45
2021/10/30 00:09:05;;;;;;;57.08;33.42;;;;;;;;;;2090394;28;20124;-45
2021/10/30 00:10:07;;;;;;;52.30;30.73;;;;;;;;;;2089932;28;20049;-44
2021/10/30 00:11:07;;;;;;;55.83;33.70;;;;;;;;;;2088583;28;20052;-44
2021/10/30 00:12:09;;;;;;;51.85;29.13;;;;;;;;;;2090355;28;20044;-46
2021/10/30 00:13:10;;;;;;;43.55;28.00;;;;;;;;;;2089510;28;20041;-44
2021/10/30 00:14:11;;;;;;;54.88;32.80;;;;;;;;;;2088889;28;20045;-45
2021/10/30 00:15:12;;;;;;;62.83;35.22;;;;;;;;;;2090499;28;20098;-44
2021/10/30 00:16:14;;;;;;;51.73;32.13;;;;;;;;;;2088883;28;20102;-45
2021/10/30 00:17:15;;;;;;;49.30;30.95;;;;;;;;;;2089622;28;20053;-44
2021/10/30 00:18:17;;;;;;;51.13;31.48;;;;;;;;;;2090209;28;20048;-44
2021/10/30 00:19:17;;;;;;;54.55;32.35;;;;;;;;;;2088252;28;20051;-44
2021/10/30 00:20:18;;;;;;;53.75;33.10;;;;;;;;;;2090183;28;20059;-44
2021/10/30 00:21:19;;;;;;;57.17;33.00;;;;;;;;;;2090441;28;20132;-45
2021/10/30 00:22:21;;;;;;;49.50;30.98;;;;;;;;;;2090456;28;20041;-45
2021/10/30 00:23:22;;;;;;;46.80;29.10;;;;;;;;;;2089136;28;20072;-45
2021/10/30 00:24:23;;;;;;;44.60;30.67;;;;;;;;;;2090423;28;20136;-45
2021/10/30 00:25:24;;;;;;;44.20;28.55;;;;;;;;;;2088031;28;20385;-44
2021/10/30 00:26:25;;;;;;;44.50;29.30;;;;;;;;;;2090176;28;20422;-45
2021/10/30 00:27:26;;;;;;;55.08;33.85;;;;;;;;;;2090237;28;20156;-44
2021/10/30 00:28:27;;;;;;;51.07;33.30;;;;;;;;;;2089266;28;20546;-44
2021/10/30 00:29:28;;;;;;;50.40;31.75;;;;;;;;;;2090395;28;20060;-45
2021/10/30 00:30:29;;;;;;;55.53;32.95;;;;;;;;;;2090390;28;20509;-44
2021/10/30 00:31:30;;;;;;;45.28;29.20;;;;;;;;;;2089335;28;20135;-45
2021/10/30 00:32:31;;;;;;;43.73;27.37;;;;;;;;;;2090363;28;20049;-45
2021/10/30 00:33:32;;;;;;;47.40;29.48;;;;;;;;;;2089834;28;20416;-44
2021/10/30 00:34:33;;;;;;;47.80;28.63;;;;;;;;;;2088352;28;20102;-46
2021/10/30 00:35:34;;;;;;;51.03;32.38;;;;;;;;;;2090371;28;20215;-44
2021/10/30 00:36:35;;;;;;;56.90;31.95;;;;;;;;;;2089855;28;20053;-44
2021/10/30 00:37:37;;;;;;;54.00;32.45;;;;;;;;;;2088380;28;20041;-44
2021/10/30 00:38:38;;;;;;;51.45;31.05;;;;;;;;;;2090192;28;20516;-45
2021/10/30 00:39:39;;;;;;;50.67;30.15;;;;;;;;;;2089540;28;20052;-44
2021/10/30 00:40:40;;;;;;;47.90;30.30;;;;;;;;;;2088726;28;20501;-44
2021/10/30 00:41:44;;;;;;;48.57;30.60;;;;;;;;;;2090218;28;20578;-44
2021/10/30 00:42:46;;;;;;;46.72;27.05;;;;;;;;;;2088028;28;20314;-44
2021/10/30 00:43:48;;;;;;;41.25;26.40;;;;;;;;;;2090169;28;20123;-45
2021/10/30 00:44:49;;;;;;;50.42;31.48;;;;;;;;;;2090220;28;20072;-44
2021/10/30 00:45:50;;;;;;;51.58;33.00;;;;;;;;;;2090513;28;20128;-45
2021/10/30 00:46:52;;;;;;;50.95;31.67;;;;;;;;;;2082945;28;20045;-45
2021/10/30 00:47:53;;;;;;;52.38;32.25;;;;;;;;;;2081781;28;20052;-45
2021/10/30 00:48:54;;;;;;;56.00;32.90;;;;;;;;;;2086245;28;20132;-44
2021/10/30 00:49:55;;;;;;;51.83;32.50;;;;;;;;;;2090055;28;20049;-44
2021/10/30 00:50:57;;;;;;;54.22;31.58;;;;;;;;;;2090207;28;20131;-44
2021/10/30 00:52:00;;;;;;;52.45;31.17;;;;;;;;;;2088960;28;20076;-45
2021/10/30 00:53:01;;;;;;;48.08;31.05;;;;;;;;;;2090271;28;20127;-45
2021/10/30 00:54:03;;;;;;;45.20;26.98;;;;;;;;;;2090103;28;20090;-44
2021/10/30 00:55:04;;;;;;;48.67;29.90;;;;;;;;;;2087020;28;20429;-45
2021/10/30 00:56:05;;;;;;;50.08;31.92;;;;;;;;;;2090144;28;20120;-44
2021/10/30 00:57:07;;;;;;;44.75;28.25;;;;;;;;;;2089682;28;20075;-44
2021/10/30 00:58:09;;;;;;;45.05;29.70;;;;;;;;;;2088047;28;20498;-44
2021/10/30 00:59:09;;;;;;;;;;;;;;;;;;2090560;28;20124;-45
2021/10/30 01:00:11;;;;;;;48.13;29.92;;;;;;;;;;2089660;28;20410;-44
2021/10/30 01:01:12;;;;;;;49.60;31.73;;;;;;;;;;2088238;28;20152;-44
2021/10/30 01:02:13;;;;;;;53.17;32.30;;;;;;;;;;2090085;28;20071;-46
2021/10/30 01:03:15;;;;;;;47.08;30.27;;;;;;;;;;2088964;28;20056;-44
2021/10/30 01:04:16;;;;;;;50.20;31.45;;;;;;;;;;2088723;28;20135;-44
2021/10/30 01:05:18;;;;;;;48.72;30.00;;;;;;;;;;2089984;28;20548;-45
2021/10/30 01:06:19;;;;;;;49.03;30.63;;;;;;;;;;2090345;28;20447;-45
2021/10/30 01:07:20;;;;;;;50.30;30.83;;;;;;;;;;2089176;28;20558;-46
2021/10/30 01:08:22;;;;;;;49.08;32.00;;;;;;;;;;2090233;28;20055;-44
2021/10/30 01:09:23;;;;;;;;;;;;;;;;;;2091000;28;20055;-45
2021/10/30 01:10:24;;;;;;;47.20;30.15;;;;;;;;;;2088543;28;19959;-45
2021/10/30 01:11:25;;;;;;;48.90;30.15;;;;;;;;;;2089637;28;20132;-46
2021/10/30 01:12:26;;;;;;;45.22;28.48;;;;;;;;;;2087809;28;20055;-44
2021/10/30 01:13:27;;;;;;;47.30;29.40;;;;;;;;;;2089912;28;20179;-44
2021/10/30 01:14:29;;;;;;;44.58;29.65;;;;;;;;;;2089938;28;20778;-45
2021/10/30 01:15:29;;;;;;;45.40;27.80;;;;;;;;;;2087808;28;20092;-46
2021/10/30 01:16:31;;;;;;;44.20;27.50;;;;;;;;;;2089855;28;20477;-44
2021/10/30 01:17:32;;;;;;;40.10;23.90;;;;;;;;;;2090016;28;20052;-44
2021/10/30 01:18:33;;;;;;;40.67;27.65;;;;;;;;;;2089076;28;20433;-45
2021/10/30 01:19:34;;;;;;;48.95;29.10;;;;;;;;;;2089992;28;20136;-47
2021/10/30 01:20:36;;;;;;;45.95;29.20;;;;;;;;;;2089606;28;20049;-44
2021/10/30 01:21:37;;;;;;;47.40;30.38;;;;;;;;;;2087924;28;20486;-45
2021/10/30 01:22:39;;;;;;;43.95;27.65;;;;;;;;;;2089905;28;20073;-45
2021/10/30 01:23:40;;;;;;;41.88;26.50;;;;;;;;;;2089319;28;20124;-45
2021/10/30 01:24:41;;;;;;;48.63;29.63;;;;;;;;;;2088179;28;20425;-44
2021/10/30 01:25:43;;;;;;;50.00;31.85;;;;;;;;;;2089866;28;20800;-45
2021/10/30 01:26:45;;;;;;;45.80;29.00;;;;;;;;;;2088999;28;20136;-47
2021/10/30 01:27:45;;;;;;;46.03;29.67;;;;;;;;;;2088403;28;20387;-45
2021/10/30 01:28:47;;;;;;;47.57;27.97;;;;;;;;;;2089931;28;20098;-45
2021/10/30 01:29:49;;;;;;;43.70;29.98;;;;;;;;;;2088860;28;20128;-45
2021/10/30 01:30:50;;;;;;;52.53;31.77;;;;;;;;;;2088748;28;20074;-45
2021/10/30 01:31:51;;;;;;;53.63;31.77;;;;;;;;;;2089941;28;20059;-45
2021/10/30 01:32:54;;;;;;;46.38;31.17;;;;;;;;;;2088008;28;20617;-46
2021/10/30 01:33:55;;;;;;;48.00;30.42;;;;;;;;;;2088628;28;20120;-44
2021/10/30 01:34:56;;;;;;;46.15;28.10;;;;;;;;;;2089881;28;20036;-44
2021/10/30 01:36:04;;;;;;;47.63;28.33;;;;;;;;;;2090074;28;20502;-45
2021/10/30 01:37:05;;;;;;;43.85;28.23;;;;;;;;;;2081816;28;20045;-45
2021/10/30 01:38:07;;;;;;;46.50;29.92;;;;;;;;;;2081803;28;20120;-45
2021/10/30 01:39:08;;;;;;;;;;;;;;;;;;2087055;28;20140;-45
2021/10/30 01:40:09;;;;;;;52.40;31.52;;;;;;;;;;2089806;28;20297;-45
2021/10/30 01:41:11;;;;;;;55.80;32.75;;;;;;;;;;2089167;28;20194;-45
2021/10/30 01:42:11;;;;;;;53.35;31.48;;;;;;;;;;2087920;28;20486;-45
2021/10/30 01:43:13;;;;;;;43.90;28.93;;;;;;;;;;2090002;28;20044;-44
2021/10/30 01:44:13;;;;;;;48.73;30.00;;;;;;;;;;2090601;28;20515;-46
2021/10/30 01:45:14;;;;;;;47.05;29.90;;;;;;;;;;2088086;28;20281;-45
2021/10/30 01:46:15;;;;;;;47.15;30.85;;;;;;;;;;2089805;28;20132;-45
2021/10/30 01:47:17;;;;;;;38.50;26.67;;;;;;;;;;2088990;28;20056;-45
2021/10/30 01:48:18;;;;;;;43.40;29.40;;;;;;;;;;2088293;28;20049;-44
2021/10/30 01:49:21;;;;;;;43.38;28.48;;;;;;;;;;2089874;28;20157;-44
2021/10/30 01:50:23;;;;;;;49.03;29.63;;;;;;;;;;2090058;28;20486;-45
2021/10/30 01:51:24;;;;;;;47.40;29.05;;;;;;;;;;2088427;28;20581;-46
2021/10/30 01:52:25;;;;;;;40.75;27.48;;;;;;;;;;2089689;28;20049;-44
2021/10/30 01:53:26;;;;;;;48.60;29.10;;;;;;;;;;2088586;28;20041;-45
2021/10/30 01:54:27;;;;;;;47.85;30.80;;;;;;;;;;2088406;28;20076;-45
2021/10/30 01:55:31;;;;;;;44.93;29.50;;;;;;;;;;2089733;28;20132;-45
2021/10/30 01:56:31;;;;;;;46.70;29.77;;;;;;;;;;2087651;28;20305;-44
2021/10/30 01:57:33;;;;;;;49.80;32.27;;;;;;;;;;2089411;28;20520;-46
2021/10/30 01:58:34;;;;;;;53.90;31.10;;;;;;;;;;2089832;28;20049;-46
2021/10/30 01:59:34;;;;;;;44.05;28.77;;;;;;;;;;2088968;28;20353;-45
2021/10/30 02:00:36;;;;;;;48.20;30.57;;;;;;;;;;2089531;28;20170;-45
2021/10/30 02:01:37;;;;;;;50.33;32.05;;;;;;;;;;2089829;28;20049;-44
2021/10/30 02:02:38;;;;;;;61.83;35.17;;;;;;;;;;2087393;28;20096;-46
2021/10/30 02:03:39;;;;;;;48.38;28.42;;;;;;;;;;2087867;28;20374;-45
2021/10/30 02:04:40;;;;;;;53.83;32.70;;;;;;;;;;2089768;28;20529;-45
2021/10/30 02:05:41;;;;;;;50.55;28.88;;;;;;;;;;2087507;28;20073;-45
2021/10/30 02:06:43;;;;;;;54.22;31.92;;;;;;;;;;2089718;28;20057;-44
2021/10/30 02:07:44;;;;;;;59.05;34.33;;;;;;;;;;2089622;28;20433;-45
2021/10/30 02:08:45;;;;;;;52.33;33.65;;;;;;;;;;2088509;28;20120;-45
2021/10/30 02:09:46;;;;;;;51.70;29.80;;;;;;;;;;2089801;28;20131;-48
2021/10/30 02:10:48;;;;;;;55.80;31.27;;;;;;;;;;2089205;28;20414;-45
2021/10/30 02:11:49;;;;;;;51.28;31.73;;;;;;;;;;2085762;28;20064;-44
2021/10/30 02:12:50;;;;;;;58.50;33.75;;;;;;;;;;2089621;28;20544;-45
2021/10/30 02:13:51;;;;;;;55.03;33.10;;;;;;;;;;2089214;28;20136;-45
2021/10/30 02:14:52;;;;;;;60.80;34.80;;;;;;;;;;2087815;28;20053;-45
2021/10/30 02:15:53;;;;;;;56.07;34.60;;;;;;;;;;2089917;28;20041;-45
2021/10/30 02:16:54;;;;;;;63.80;34.20;;;;;;;;;;2088816;28;20041;-45
2021/10/30 02:17:55;;;;;;;56.35;33.65;;;;;;;;;;2088055;28;20500;-46
2021/10/30 02:18:56;;;;;;;65.25;33.55;;;;;;;;;;2089586;28;20581;-45
2021/10/30 02:19:57;;;;;;;57.40;33.47;;;;;;;;;;2089983;28;20040;-45
2021/10/30 02:20:58;;;;;;;58.92;34.30;;;;;;;;;;2088116;28;20179;-46
2021/10/30 02:22:01;;;;;;;54.03;31.95;;;;;;;;;;2089517;28;20048;-45
2021/10/30 02:23:01;;;;;;;69.20;33.83;;;;;;;;;;2087166;28;20055;-44
2021/10/30 02:24:03;;;;;;;52.40;31.33;;;;;;;;;;2089028;28;20395;-46
2021/10/30 02:25:04;;;;;;;56.35;32.78;;;;;;;;;;2089683;28;20165;-48
2021/10/30 02:26:05;;;;;;;56.47;32.95;;;;;;;;;;2089810;28;20124;-46
2021/10/30 02:27:06;;;;;;;61.15;32.30;;;;;;;;;;2088145;28;20075;-46
2021/10/30 02:28:07;;;;;;;59.03;32.05;;;;;;;;;;2089561;28;20057;-46
2021/10/30 02:29:10;;;;;;;48.72;30.27;;;;;;;;;;2089513;28;20049;-44
2021/10/30 02:30:11;;;;;;;51.00;31.27;;;;;;;;;;2088573;28;20132;-45
2021/10/30 02:31:12;;;;;;;53.58;30.83;;;;;;;;;;2089480;28;20110;-45
2021/10/30 02:32:13;;;;;;;55.55;33.78;;;;;;;;;;2087334;28;20049;-45
2021/10/30 02:33:14;;;;;;;54.90;30.77;;;;;;;;;;2089286;28;20107;-45
2021/10/30 02:34:15;;;;;;;59.58;33.90;;;;;;;;;;2089507;28;20127;-46
2021/10/30 02:35:16;;;;;;;68.75;33.63;;;;;;;;;;2087237;28;20056;-45
2021/10/30 02:36:17;;;;;;;57.05;32.60;;;;;;;;;;2089435;28;20128;-44
2021/10/30 02:37:19;;;;;;;59.63;33.65;;;;;;;;;;2089358;28;20049;-45
2021/10/30 02:38:20;;;;;;;48.47;31.30;;;;;;;;;;2087192;28;20128;-44
2021/10/30 02:39:21;;;;;;;57.92;31.95;;;;;;;;;;2089669;28;20132;-45
2021/10/30 02:40:22;;;;;;;48.30;29.90;;;;;;;;;;2088896;28;20422;-44
2021/10/30 02:41:23;;;;;;;52.78;30.33;;;;;;;;;;2087461;28;20047;-46
2021/10/30 02:42:24;;;;;;;61.10;33.23;;;;;;;;;;2089329;28;20073;-45
2021/10/30 02:43:25;;;;;;;57.05;32.28;;;;;;;;;;2088936;28;20120;-45
2021/10/30 02:44:26;;;;;;;49.80;30.30;;;;;;;;;;2087596;28;20513;-45
2021/10/30 02:45:27;;;;;;;66.67;32.90;;;;;;;;;;2089580;28;20128;-46
2021/10/30 02:46:28;;;;;;;49.25;30.02;;;;;;;;;;2088961;28;20288;-46
2021/10/30 02:47:29;;;;;;;44.38;25.85;;;;;;;;;;2087778;28;20674;-45
2021/10/30 02:48:30;;;;;;;60.97;32.58;;;;;;;;;;2089574;28;20049;-45
2021/10/30 02:49:32;;;;;;;56.25;30.90;;;;;;;;;;2089814;28;20040;-44
2021/10/30 02:50:33;;;;;;;51.78;30.45;;;;;;;;;;2088024;28;20127;-45
2021/10/30 02:51:34;;;;;;;48.80;30.98;;;;;;;;;;2089604;28;20060;-50
2021/10/30 02:52:36;;;;;;;55.65;29.52;;;;;;;;;;2088423;28;20136;-51
2021/10/30 02:53:37;;;;;;;59.38;32.13;;;;;;;;;;2086761;28;20500;-48
2021/10/30 02:54:38;;;;;;;54.27;27.73;;;;;;;;;;2089470;28;20144;-48
2021/10/30 02:55:39;;;;;;;56.25;32.20;;;;;;;;;;2089734;28;20343;-48
2021/10/30 02:56:40;;;;;;;47.67;30.37;;;;;;;;;;2088101;28;20041;-49
2021/10/30 02:57:47;;;;;;;52.63;29.17;;;;;;;;;;2089241;28;20767;-50
2021/10/30 02:58:48;;;;;;;54.70;29.90;;;;;;;;;;2087145;28;20120;-51
2021/10/30 02:59:50;;;;;;;48.28;28.63;;;;;;;;;;2087964;28;20075;-48
2021/10/30 03:00:52;;;;;;;58.63;30.90;;;;;;;;;;2089501;28;20049;-50
2021/10/30 03:01:53;;;;;;;49.90;29.08;;;;;;;;;;2087006;28;20107;-49
2021/10/30 03:02:54;;;;;;;60.97;30.85;;;;;;;;;;2087690;28;20437;-49
2021/10/30 03:03:55;;;;;;;48.05;30.35;;;;;;;;;;2089443;28;20072;-49
2021/10/30 03:04:56;;;;;;;53.07;29.50;;;;;;;;;;2087055;28;20050;-49
2021/10/30 03:05:57;;;;;;;52.13;29.88;;;;;;;;;;2089528;28;20120;-47
2021/10/30 03:06:58;;;;;;;55.42;31.08;;;;;;;;;;2089300;28;20552;-48
2021/10/30 03:08:00;;;;;;;51.20;28.50;;;;;;;;;;2086647;28;20045;-49
2021/10/30 03:09:01;;;;;;;67.20;31.25;;;;;;;;;;2089342;28;20065;-48
2021/10/30 03:10:02;;;;;;;67.45;32.00;;;;;;;;;;2088847;28;20068;-48
2021/10/30 03:11:03;;;;;;;49.65;29.60;;;;;;;;;;2087656;28;20128;-47
2021/10/30 03:12:05;;;;;;;59.08;31.98;;;;;;;;;;2089110;28;20549;-48
2021/10/30 03:13:06;;;;;;;61.58;32.90;;;;;;;;;;2090032;28;20041;-50
2021/10/30 03:14:07;;;;;;;52.88;29.30;;;;;;;;;;2086345;28;20690;-50
2021/10/30 03:15:08;;;;;;;63.60;29.90;;;;;;;;;;2089278;28;20053;-49
2021/10/30 03:16:10;;;;;;;45.80;28.92;;;;;;;;;;2088570;28;20045;-49
2021/10/30 03:17:11;;;;;;;74.60;32.75;;;;;;;;;;2087517;28;20091;-49
2021/10/30 03:18:12;;;;;;;44.83;27.67;;;;;;;;;;2089197;28;20545;-48
2021/10/30 03:19:13;;;;;;;66.82;32.20;;;;;;;;;;2089590;28;20532;-48
2021/10/30 03:20:14;;;;;;;66.18;31.95;;;;;;;;;;2087713;28;20064;-49
2021/10/30 03:21:15;;;;;;;64.85;32.28;;;;;;;;;;2089253;28;20532;-50
2021/10/30 03:22:16;;;;;;;51.17;28.97;;;;;;;;;;2089616;28;20053;-49
2021/10/30 03:23:18;;;;;;;62.17;31.15;;;;;;;;;;2087977;28;20148;-50
2021/10/30 03:24:19;;;;;;;53.75;30.88;;;;;;;;;;2089342;28;20115;-49
2021/10/30 03:25:20;;;;;;;87.32;35.38;;;;;;;;;;2087540;28;20195;-49
2021/10/30 03:26:21;;;;;;;65.47;30.90;;;;;;;;;;2088886;28;20182;-49
2021/10/30 03:27:22;;;;;;;57.17;30.90;;;;;;;;;;2089247;28;20102;-51
2021/10/30 03:28:23;;;;;;;64.82;33.53;;;;;;;;;;2086654;28;20417;-50
2021/10/30 03:29:24;;;;;;;76.63;33.45;;;;;;;;;;2088938;28;20045;-49
2021/10/30 03:30:25;;;;;;;70.63;29.92;;;;;;;;;;2089282;28;20055;-49
2021/10/30 03:31:26;;;;;;;87.70;33.22;;;;;;;;;;2089431;28;20044;-49
2021/10/30 03:32:27;;;;;;;63.10;30.97;;;;;;;;;;2081771;28;20122;-53
2021/10/30 03:33:28;;;;;;;80.53;34.80;;;;;;;;;;2081127;28;20128;-51
2021/10/30 03:34:29;;;;;;;68.65;31.02;;;;;;;;;;2084643;28;20053;-50
2021/10/30 03:35:30;;;;;;;76.00;32.60;;;;;;;;;;2089112;28;20078;-48
2021/10/30 03:36:32;;;;;;;59.65;31.48;;;;;;;;;;2089085;28;20554;-48
2021/10/30 03:37:34;;;;;;;74.40;33.85;;;;;;;;;;2086560;28;20151;-48
2021/10/30 03:38:37;;;;;;;52.88;30.40;;;;;;;;;;2089006;28;20089;-48
2021/10/30 03:39:38;;;;;;;58.92;32.15;;;;;;;;;;2089238;28;20052;-48
2021/10/30 03:40:39;;;;;;;71.90;32.47;;;;;;;;;;2085547;28;20049;-50
2021/10/30 03:41:40;;;;;;;52.00;30.45;;;;;;;;;;2089173;28;20083;-50
2021/10/30 03:42:41;;;;;;;53.93;31.57;;;;;;;;;;2088601;28;20283;-48
2021/10/30 03:43:42;;;;;;;56.53;28.52;;;;;;;;;;2087281;28;20052;-49
2021/10/30 03:44:43;;;;;;;61.53;32.35;;;;;;;;;;2089169;28;20489;-48
2021/10/30 03:45:44;;;;;;;54.05;29.48;;;;;;;;;;2088527;28;20470;-48
2021/10/30 03:46:45;;;;;;;59.55;31.88;;;;;;;;;;2087150;28;20060;-48
2021/10/30 03:47:46;;;;;;;55.50;30.58;;;;;;;;;;2088965;28;20175;-51
2021/10/30 03:48:47;;;;;;;66.18;32.13;;;;;;;;;;2088472;28;20569;-48
2021/10/30 03:49:48;;;;;;;59.72;30.92;;;;;;;;;;2087547;28;20040;-45
2021/10/30 03:50:51;;;;;;;68.85;33.85;;;;;;;;;;2089171;28;20182;-44
2021/10/30 03:51:52;;;;;;;73.28;34.60;;;;;;;;;;2087978;28;20207;-45
2021/10/30 03:52:53;;;;;;;61.65;31.08;;;;;;;;;;2087490;28;20569;-45
2021/10/30 03:53:54;;;;;;;58.13;29.07;;;;;;;;;;2089073;28;20052;-45
2021/10/30 03:54:55;;;;;;;62.22;30.90;;;;;;;;;;2088046;28;20123;-44
2021/10/30 03:55:56;;;;;;;74.00;33.42;;;;;;;;;;2087443;28;20486;-45
2021/10/30 03:56:58;;;;;;;68.15;32.25;;;;;;;;;;2088893;28;20128;-44
2021/10/30 03:57:59;;;;;;;64.72;31.15;;;;;;;;;;2089556;28;20052;-45
2021/10/30 03:59:00;;;;;;;57.40;29.20;;;;;;;;;;2087586;28;20442;-45
2021/10/30 04:00:02;;;;;;;44.72;24.85;;;;;;;;;;2088984;28;20126;-44
2021/10/30 04:01:03;;;;;;;46.65;27.30;;;;;;;;;;2086669;28;20962;-45
2021/10/30 04:02:07;;;;;;;44.97;27.35;;;;;;;;;;2088650;28;20080;-45
2021/10/30 04:03:08;;;;;;;53.55;30.88;;;;;;;;;;2087435;28;20037;-45
2021/10/30 04:04:09;;;;;;;49.67;29.48;;;;;;;;;;2088544;28;20166;-45
2021/10/30 04:05:10;;;;;;;63.58;29.60;;;;;;;;;;2088555;28;20478;-45
2021/10/30 04:06:12;;;;;;;49.40;28.20;;;;;;;;;;2089234;28;20191;-44
2021/10/30 04:07:13;;;;;;;37.25;25.02;;;;;;;;;;2086718;28;20142;-48
2021/10/30 04:08:18;;;;;;;50.95;28.48;;;;;;;;;;2088814;28;20041;-50
2021/10/30 04:09:21;;;;;;;45.70;26.77;;;;;;;;;;2088387;28;20565;-50
2021/10/30 04:10:22;;;;;;;53.45;27.30;;;;;;;;;;2086977;28;20079;-51
2021/10/30 04:11:23;;;;;;;49.00;26.53;;;;;;;;;;2089088;28;20174;-48
2021/10/30 04:12:25;;;;;;;42.27;24.77;;;;;;;;;;2089380;28;20439;-51
2021/10/30 04:13:26;;;;;;;45.53;27.27;;;;;;;;;;2087144;28;20279;-48
2021/10/30 04:14:26;;;;;;;40.83;24.42;;;;;;;;;;2089191;28;20134;-45
2021/10/30 04:15:28;;;;;;;43.35;25.15;;;;;;;;;;2089771;28;20106;-46
2021/10/30 04:16:29;;;;;;;38.63;23.83;;;;;;;;;;2087113;28;20045;-45
2021/10/30 04:17:30;;;;;;;44.95;27.30;;;;;;;;;;2088901;28;20099;-46
2021/10/30 04:18:31;;;;;;;56.80;26.83;;;;;;;;;;2089266;28;20577;-44
2021/10/30 04:19:32;;;;;;;47.13;25.67;;;;;;;;;;2086430;28;20044;-45
2021/10/30 04:20:33;;;;;;;40.80;25.50;;;;;;;;;;2089050;28;20136;-45
2021/10/30 04:21:34;;;;;;;45.92;24.23;;;;;;;;;;2087903;28;20049;-45
2021/10/30 04:22:35;;;;;;;44.65;25.77;;;;;;;;;;2087289;28;20376;-44
2021/10/30 04:23:36;;;;;;;52.53;26.45;;;;;;;;;;2089266;28;20133;-49
2021/10/30 04:24:38;;;;;;;43.17;27.38;;;;;;;;;;2089273;28;20128;-50
2021/10/30 04:25:39;;;;;;;49.35;27.38;;;;;;;;;;2087463;28;20082;-48
2021/10/30 04:26:41;;;;;;;63.08;28.85;;;;;;;;;;2088855;28;20049;-49
2021/10/30 04:27:41;;;;;;;43.22;26.17;;;;;;;;;;2086641;28;20487;-49
2021/10/30 04:28:43;;;;;;;56.17;28.53;;;;;;;;;;2088550;28;20044;-49
2021/10/30 04:29:43;;;;;;;40.67;24.08;;;;;;;;;;2088837;28;20569;-49
2021/10/30 04:30:44;;;;;;;52.35;25.45;;;;;;;;;;2086711;28;20045;-48
2021/10/30 04:31:48;;;;;;;60.45;27.67;;;;;;;;;;2088569;28;20052;-48
2021/10/30 04:32:49;;;;;;;87.07;29.20;;;;;;;;;;2088780;28;20045;-48
2021/10/30 04:33:52;;;;;;;53.67;25.13;;;;;;;;;;2088337;28;20376;-48
2021/10/30 04:34:59;;;;;;;57.42;27.17;;;;;;;;;;2088750;28;20432;-48
2021/10/30 04:36:03;;;;;;;37.28;22.63;;;;;;;;;;2089111;28;20068;-52
2021/10/30 04:37:13;;;;;;;48.30;26.80;;;;;;;;;;2086858;28;20628;-49
2021/10/30 04:38:14;;;;;;;43.72;26.08;;;;;;;;;;2088935;28;20426;-49
2021/10/30 04:39:18;;;;;;;44.13;25.27;;;;;;;;;;2088248;28;20183;-48
2021/10/30 04:40:19;;;;;;;48.97;26.88;;;;;;;;;;2086644;28;20049;-49
2021/10/30 04:41:21;;;;;;;49.05;26.13;;;;;;;;;;2088867;28;20459;-48
2021/10/30 04:42:22;;;;;;;61.38;26.60;;;;;;;;;;2088047;28;20455;-48
2021/10/30 04:43:23;;;;;;;50.90;26.52;;;;;;;;;;2087562;28;20152;-49
2021/10/30 04:44:24;;;;;;;39.75;23.92;;;;;;;;;;2089043;28;20640;-48
2021/10/30 04:45:25;;;;;;;46.40;24.35;;;;;;;;;;2087555;28;20136;-49
2021/10/30 04:46:26;;;;;;;39.00;23.15;;;;;;;;;;2088866;28;20049;-48
2021/10/30 04:47:27;;;;;;;51.47;25.10;;;;;;;;;;2090290;28;20440;-48
2021/10/30 04:48:28;;;;;;;63.72;27.08;;;;;;;;;;2087989;28;20080;-49
2021/10/30 04:49:29;;;;;;;78.95;30.90;;;;;;;;;;2090093;28;20145;-49
2021/10/30 04:50:30;;;;;;;81.38;29.67;;;;;;;;;;2090325;28;20136;-49
2021/10/30 04:51:31;;;;;;;92.27;29.60;;;;;;;;;;2088286;28;20498;-48
2021/10/30 04:52:32;;;;;;;55.00;26.30;;;;;;;;;;2089424;28;20091;-47
2021/10/30 04:53:34;;;;;;;58.83;24.35;;;;;;;;;;2090439;28;20045;-49
2021/10/30 04:54:35;;;;;;;55.60;29.35;;;;;;;;;;2088151;28;20148;-47
2021/10/30 04:55:37;;;;;;;43.83;23.27;;;;;;;;;;2090033;28;20140;-51
2021/10/30 04:56:37;;;;;;;56.45;27.38;;;;;;;;;;2090251;28;20494;-47
2021/10/30 04:57:39;;;;;;;52.47;27.83;;;;;;;;;;2089152;28;20136;-48
2021/10/30 04:58:43;;;;;;;62.30;27.05;;;;;;;;;;2090366;28;20049;-48
2021/10/30 04:59:44;;;;;;;80.07;27.77;;;;;;;;;;2090241;28;20489;-48
2021/10/30 05:00:45;;;;;;;68.05;27.70;;;;;;;;;;2089212;28;20052;-48
2021/10/30 05:01:46;;;;;;;72.35;27.77;;;;;;;;;;2090053;28;20045;-48
2021/10/30 05:02:47;;;;;;;75.32;29.45;;;;;;;;;;2088210;28;20494;-49
2021/10/30 05:03:49;;;;;;;48.22;26.83;;;;;;;;;;2088294;28;20045;-49
2021/10/30 05:04:49;;;;;;;52.38;28.20;;;;;;;;;;2090291;28;20124;-48
2021/10/30 05:05:52;;;;;;;56.40;27.30;;;;;;;;;;2089962;28;20052;-49
2021/10/30 05:06:53;;;;;;;61.78;30.00;;;;;;;;;;2087447;28;20140;-49
2021/10/30 05:07:54;;;;;;;69.93;30.07;;;;;;;;;;2090080;28;20078;-48
2021/10/30 05:08:54;;;;;;;59.22;24.60;;;;;;;;;;2091060;28;20127;-48
2021/10/30 05:09:56;;;;;;;74.97;29.33;;;;;;;;;;2088474;28;20041;-48
2021/10/30 05:10:57;;;;;;;50.92;28.42;;;;;;;;;;2090211;28;20428;-49
2021/10/30 05:11:59;;;;;;;80.90;29.40;;;;;;;;;;2089264;28;20041;-49
2021/10/30 05:13:00;;;;;;;57.53;30.23;;;;;;;;;;2088672;28;20124;-47
2021/10/30 05:14:01;;;;;;;58.33;29.00;;;;;;;;;;2090277;28;20102;-47
2021/10/30 05:15:02;;;;;;;46.13;24.27;;;;;;;;;;2088935;28;20462;-48
2021/10/30 05:16:06;;;;;;;52.63;25.88;;;;;;;;;;2089333;28;20080;-48
2021/10/30 05:17:07;;;;;;;59.33;29.10;;;;;;;;;;2089889;28;20091;-47
2021/10/30 05:18:08;;;;;;;69.38;25.80;;;;;;;;;;2088093;28;20095;-49
2021/10/30 05:19:09;;;;;;;55.20;29.10;;;;;;;;;;2089992;28;20045;-49
2021/10/30 05:20:11;;;;;;;77.85;30.42;;;;;;;;;;2090085;28;20442;-49
2021/10/30 05:21:12;;;;;;;57.30;29.38;;;;;;;;;;2090507;28;20053;-47
2021/10/30 05:22:13;;;;;;;67.07;29.47;;;;;;;;;;2088822;28;20049;-47
2021/10/30 05:23:13;;;;;;;61.95;28.50;;;;;;;;;;2090038;28;20486;-48
2021/10/30 05:24:15;;;;;;;69.97;29.90;;;;;;;;;;2090143;28;20049;-48
2021/10/30 05:25:16;;;;;;;58.83;30.30;;;;;;;;;;2089467;28;20083;-48
2021/10/30 05:26:18;;;;;;;56.47;28.47;;;;;;;;;;2090167;28;20132;-48
2021/10/30 05:27:19;;;;;;;54.70;26.67;;;;;;;;;;2086581;28;20041;-48
2021/10/30 05:28:21;;;;;;;49.57;27.90;;;;;;;;;;2090149;28;20402;-49
2021/10/30 05:29:22;;;;;;;78.28;32.08;;;;;;;;;;2089981;28;20582;-48
2021/10/30 05:30:23;;;;;;;46.45;26.08;;;;;;;;;;2089019;28;20179;-49
2021/10/30 05:31:24;;;;;;;92.50;35.73;;;;;;;;;;2089949;28;20104;-48
2021/10/30 05:32:25;;;;;;;58.53;30.63;;;;;;;;;;2089608;28;20049;-48
2021/10/30 05:33:26;;;;;;;64.28;25.92;;;;;;;;;;2084399;28;20045;-48
2021/10/30 05:34:27;;;;;;;70.77;29.97;;;;;;;;;;2081932;28;20132;-49
2021/10/30 05:35:28;;;;;;;91.78;31.00;;;;;;;;;;2083886;28;20290;-48
2021/10/30 05:36:31;;;;;;;78.68;31.20;;;;;;;;;;2088686;28;20144;-49
2021/10/30 05:37:32;;;;;;;69.13;29.63;;;;;;;;;;2089923;28;20081;-49
2021/10/30 05:38:35;;;;;;;71.18;28.25;;;;;;;;;;2088445;28;20342;-49
2021/10/30 05:39:36;;;;;;;49.25;25.35;;;;;;;;;;2089372;28;20045;-48
2021/10/30 05:40:37;;;;;;;76.43;29.70;;;;;;;;;;2089949;28;20131;-48
2021/10/30 05:41:39;;;;;;;79.63;29.03;;;;;;;;;;2087854;28;20041;-48
2021/10/30 05:42:40;;;;;;;;;;;;;;;;;;2089962;28;20045;-49
2021/10/30 05:43:41;;;;;;;74.22;27.48;;;;;;;;;;2089948;28;20286;-49
2021/10/30 05:44:43;;;;;;;66.03;28.85;;;;;;;;;;2087567;28;20478;-48
2021/10/30 05:45:44;;;;;;;74.75;28.08;;;;;;;;;;2089758;28;20049;-50
2021/10/30 05:46:46;;;;;;;75.68;28.98;;;;;;;;;;2089858;28;20049;-48
2021/10/30 05:47:47;;;;;;;57.45;26.70;;;;;;;;;;2089079;28;20577;-49
2021/10/30 05:48:50;;;;;;;85.60;28.90;;;;;;;;;;2088955;28;20045;-49
2021/10/30 05:49:52;;;;;;;93.38;31.73;;;;;;;;;;2089993;28;20049;-48
2021/10/30 05:50:53;;;;;;;66.72;28.13;;;;;;;;;;2087547;28;20131;-48
2021/10/30 05:51:55;;;;;;;54.95;26.42;;;;;;;;;;2089954;28;20045;-48
2021/10/30 05:52:56;;;;;;;64.43;28.55;;;;;;;;;;2089898;28;20076;-49
2021/10/30 05:53:58;;;;;;;104.00;30.53;;;;;;;;;;2088707;28;20064;-49
2021/10/30 05:54:58;;;;;;;65.05;30.70;;;;;;;;;;2089982;28;20127;-49
2021/10/30 05:55:59;;;;;;;76.45;31.50;;;;;;;;;;2089353;28;20552;-49
2021/10/30 05:57:01;;;;;;;76.93;31.52;;;;;;;;;;2087921;28;20132;-49
2021/10/30 05:58:02;;;;;;;54.13;28.13;;;;;;;;;;2088805;28;20049;-49